Oban — PDWJ — position and weather

sailwx.info

Track history (hours):
 
Tides and Currents Weather Stations Pressure Air Temp Water Temp Dewpoint Dewpoint Depression Visibility Wind Speed Wind Dir Waves Ship Positions

Oban

Last reported at 2020-Aug-10 00:30 UTC. Time now 2020-Aug-10 01:31 UTC.
Position N 54°06' E 012°08'.

Length 39 m; draft 2.8 m.

Type: Sailing vessel. MMSI: 246085000.

Date/timePositionNaut miles runAvg speedWind from/ knotsBaromVisibWave heightAir tempDewpointWater temp
2020-Aug-10 00:30N 54°06' E 012°08'0 0.0
2020-Aug-09 23:30N 54°06' E 012°08'0 0.0
2020-Aug-09 20:00N 54°06' E 012°08'0 0.0
2020-Aug-09 18:30N 54°06' E 012°08'0 0.0
2020-Aug-09 16:30N 54°06' E 012°08'0 0.0
2020-Aug-09 15:00N 54°06' E 012°08'0 0.0
2020-Aug-09 12:29N 54°06' E 012°08'1 0.4
2020-Aug-09 11:00N 54°06' E 012°07'6 4.2
2020-Aug-09 09:30N 54°12' E 012°07'1 0.5
2020-Aug-09 07:18N 54°12' E 012°08'0 0.0
2020-Aug-09 06:57N 54°12' E 012°08'0 0.0
2020-Aug-09 05:30N 54°12' E 012°08'0 0.0
2020-Aug-09 04:30N 54°12' E 012°08'0 0.0
2020-Aug-08 23:24N 54°12' E 012°08'0 0.0
2020-Aug-08 22:30N 54°12' E 012°08'0 0.0
2020-Aug-08 21:29N 54°12' E 012°08'0 0.0
2020-Aug-08 17:29N 54°12' E 012°08'0 0.0
2020-Aug-08 14:29N 54°12' E 012°08'0 0.0
2020-Aug-08 12:59N 54°12' E 012°08'0 0.0
2020-Aug-08 11:22N 54°12' E 012°08'0 0.0
2020-Aug-08 09:10N 54°12' E 012°08'0 0.0
2020-Aug-08 08:34N 54°12' E 012°08'0 0.0
2020-Aug-08 07:46N 54°12' E 012°08'0 0.0
2020-Aug-08 04:46N 54°12' E 012°08'0 0.0
2020-Aug-08 03:52N 54°12' E 012°08'0 0.0
2020-Aug-08 03:28N 54°12' E 012°08'0 0.0
2020-Aug-08 02:58N 54°12' E 012°08'0 0.0
2020-Aug-08 00:48N 54°12' E 012°08'0 0.0
2020-Aug-07 23:57N 54°12' E 012°08'0 0.0
2020-Aug-07 21:57N 54°12' E 012°08'0 0.0
2020-Aug-07 19:30N 54°12' E 012°08'0 0.0
2020-Aug-07 17:21N 54°12' E 012°08'0 0.0
2020-Aug-07 16:00N 54°12' E 012°08'0 0.0
2020-Aug-07 14:00N 54°12' E 012°08'0 0.0
2020-Aug-07 12:42N 54°12' E 012°08'0 0.0
2020-Aug-07 10:26N 54°12' E 012°08'0 0.0
2020-Aug-07 10:00N 54°12' E 012°08'0 0.0
2020-Aug-07 06:23N 54°12' E 012°08'0 0.0
2020-Aug-07 04:56N 54°12' E 012°08'0 0.0
2020-Aug-07 04:29N 54°12' E 012°08'0 0.0
2020-Aug-07 03:56N 54°12' E 012°08'0 0.0
2020-Aug-07 03:26N 54°12' E 012°08'0 0.0
2020-Aug-07 00:56N 54°12' E 012°08'0 0.0
2020-Aug-06 23:29N 54°12' E 012°08'0 0.0
2020-Aug-06 21:28N 54°12' E 012°08'0 0.0
2020-Aug-06 19:58N 54°12' E 012°08'0 0.0
2020-Aug-06 15:55N 54°12' E 012°08'0 0.0
2020-Aug-06 13:25N 54°12' E 012°08'7 0.9
2020-Aug-06 06:00N 54°06' E 012°08'0 0.0
2020-Aug-06 05:30N 54°06' E 012°08'0 0.0
2020-Aug-06 04:30N 54°06' E 012°08'0 0.0
2020-Aug-06 03:52N 54°06' E 012°08'0 0.0
2020-Aug-06 02:00N 54°06' E 012°08'0 0.0
2020-Aug-06 01:30N 54°06' E 012°08'0 0.0
2020-Aug-05 22:30N 54°06' E 012°09'0 0.0
2020-Aug-05 20:00N 54°06' E 012°08'0 0.0
2020-Aug-05 19:30N 54°06' E 012°08'0 0.0
2020-Aug-05 17:30N 54°06' E 012°08'0 0.0
2020-Aug-05 14:00N 54°06' E 012°08'0 0.0
2020-Aug-05 13:00N 54°06' E 012°08'0 0.0
2020-Aug-05 12:30N 54°06' E 012°09'4 1.3
2020-Aug-05 09:30N 54°09' E 012°06'2 0.5
2020-Aug-05 06:30N 54°11' E 012°06'0 0.0
2020-Aug-05 04:30N 54°11' E 012°06'0 0.0
2020-Aug-05 00:30N 54°11' E 012°06'0 0.0
2020-Aug-04 22:30N 54°11' E 012°06'0 0.0
2020-Aug-04 21:00N 54°11' E 012°06'0 0.0
2020-Aug-04 20:00N 54°11' E 012°06'0 0.0
2020-Aug-04 17:00N 54°11' E 012°06'15 2.5
2020-Aug-04 11:00N 54°19' E 011°44'11 4.0
2020-Aug-04 08:23N 54°22' E 011°27'7 1.9
2020-Aug-04 04:53N 54°24' E 011°16'0 0.0
2020-Aug-04 03:53N 54°24' E 011°16'0 0.0
2020-Aug-04 02:56N 54°24' E 011°16'0 0.0
2020-Aug-03 22:26N 54°24' E 011°16'1 0.3
2020-Aug-03 17:29N 54°24' E 011°18'6 5.8
2020-Aug-03 16:30N 54°29' E 011°16'6 5.7
2020-Aug-03 15:30N 54°32' E 011°08'12 4.8
2020-Aug-03 13:00N 54°35' E 010°47'4 2.1
2020-Aug-03 11:00N 54°37' E 010°41'2 2.2
2020-Aug-03 10:00N 54°36' E 010°37'1 2.1
2020-Aug-03 09:28N 54°36' E 010°35'4 4.8
2020-Aug-03 08:40N 54°35' E 010°28'11 6.4
2020-Aug-03 07:00N 54°35' E 010°10'5 3.3
2020-Aug-03 05:30N 54°35' E 010°02'0 0.0
2020-Aug-03 04:30N 54°35' E 010°02'0 0.0
2020-Aug-03 03:30N 54°35' E 010°02'0 0.0
2020-Aug-02 23:53N 54°35' E 010°02'0 0.0
2020-Aug-02 17:30N 54°35' E 010°02'0 0.0
2020-Aug-02 16:30N 54°35' E 010°02'0 0.0
2020-Aug-02 13:30N 54°35' E 010°02'0 0.0
2020-Aug-02 13:00N 54°35' E 010°02'0 0.0
2020-Aug-02 12:30N 54°35' E 010°02'2 0.8
2020-Aug-02 10:31N 54°34' E 010°03'2 4.3
2020-Aug-02 10:00N 54°36' E 010°03'5 1.3
2020-Aug-02 06:19N 54°40' E 010°02'0 0.0
2020-Aug-02 04:55N 54°40' E 010°02'0 0.0
2020-Aug-02 04:29N 54°40' E 010°02'0 0.0
2020-Aug-02 03:59N 54°40' E 010°02'0 0.0
2020-Aug-02 02:57N 54°40' E 010°02'0 0.0
2020-Aug-02 01:49N 54°40' E 010°02'0 0.0
2020-Aug-02 01:00N 54°40' E 010°02'0 0.0
2020-Aug-01 22:30N 54°40' E 010°02'0 0.0
2020-Aug-01 15:56N 54°40' E 010°02'5 2.4
2020-Aug-01 14:00N 54°38' E 010°08'16 6.3
2020-Aug-01 11:30N 54°22' E 010°11'2 0.9
2020-Aug-01 09:30N 54°20' E 010°09'0 0.0
2020-Aug-01 05:30N 54°20' E 010°09'0 0.0
2020-Aug-01 03:01N 54°20' E 010°09'0 0.0
2020-Aug-01 02:30N 54°20' E 010°09'0 0.0
2020-Aug-01 00:30N 54°20' E 010°09'0 0.0
2020-Aug-01 00:01N 54°20' E 010°09'0 0.0
2020-Jul-31 21:30N 54°20' E 010°09'0 0.0
2020-Jul-31 18:00N 54°20' E 010°09'0 0.0
2020-Jul-31 15:30N 54°20' E 010°09'4 1.1
2020-Jul-31 12:00N 54°24' E 010°12'7 3.4
2020-Jul-31 10:00N 54°30' E 010°08'10 2.9
2020-Jul-31 06:29N 54°28' E 009°51'1 1.2
2020-Jul-31 06:00N 54°28' E 009°50'0 0.0
2020-Jul-31 05:00N 54°28' E 009°50'0 0.0
2020-Jul-31 04:00N 54°28' E 009°50'0 0.0
2020-Jul-31 00:58N 54°28' E 009°50'  
Track history (hours):
 
Tides and Currents Weather Stations Pressure Air Temp Water Temp Dewpoint Dewpoint Depression Visibility Wind Speed Wind Dir Waves Ship Positions

Oban

Last reported at 2020-Aug-10 00:30 UTC. Time now 2020-Aug-10 01:31 UTC.
Position N 54°06' E 012°08'.

Length 39 m; draft 2.8 m.

Type: Sailing vessel. MMSI: 246085000.

Date/timePositionNaut miles runAvg speedWind from/ knotsBaromVisibWave heightAir tempDewpointWater temp
2020-Aug-10 00:30N 54°06' E 012°08'0 0.0
2020-Aug-09 23:30N 54°06' E 012°08'0 0.0
2020-Aug-09 20:00N 54°06' E 012°08'0 0.0
2020-Aug-09 18:30N 54°06' E 012°08'0 0.0
2020-Aug-09 16:30N 54°06' E 012°08'0 0.0
2020-Aug-09 15:00N 54°06' E 012°08'0 0.0
2020-Aug-09 12:29N 54°06' E 012°08'1 0.4
2020-Aug-09 11:00N 54°06' E 012°07'6 4.2
2020-Aug-09 09:30N 54°12' E 012°07'1 0.5
2020-Aug-09 07:18N 54°12' E 012°08'0 0.0
2020-Aug-09 06:57N 54°12' E 012°08'0 0.0
2020-Aug-09 05:30N 54°12' E 012°08'0 0.0
2020-Aug-09 04:30N 54°12' E 012°08'0 0.0
2020-Aug-08 23:24N 54°12' E 012°08'0 0.0
2020-Aug-08 22:30N 54°12' E 012°08'0 0.0
2020-Aug-08 21:29N 54°12' E 012°08'0 0.0
2020-Aug-08 17:29N 54°12' E 012°08'0 0.0
2020-Aug-08 14:29N 54°12' E 012°08'0 0.0
2020-Aug-08 12:59N 54°12' E 012°08'0 0.0
2020-Aug-08 11:22N 54°12' E 012°08'0 0.0
2020-Aug-08 09:10N 54°12' E 012°08'0 0.0
2020-Aug-08 08:34N 54°12' E 012°08'0 0.0
2020-Aug-08 07:46N 54°12' E 012°08'0 0.0
2020-Aug-08 04:46N 54°12' E 012°08'0 0.0
2020-Aug-08 03:52N 54°12' E 012°08'0 0.0
2020-Aug-08 03:28N 54°12' E 012°08'0 0.0
2020-Aug-08 02:58N 54°12' E 012°08'0 0.0
2020-Aug-08 00:48N 54°12' E 012°08'0 0.0
2020-Aug-07 23:57N 54°12' E 012°08'0 0.0
2020-Aug-07 21:57N 54°12' E 012°08'0 0.0
2020-Aug-07 19:30N 54°12' E 012°08'0 0.0
2020-Aug-07 17:21N 54°12' E 012°08'0 0.0
2020-Aug-07 16:00N 54°12' E 012°08'0 0.0
2020-Aug-07 14:00N 54°12' E 012°08'0 0.0
2020-Aug-07 12:42N 54°12' E 012°08'0 0.0
2020-Aug-07 10:26N 54°12' E 012°08'0 0.0
2020-Aug-07 10:00N 54°12' E 012°08'0 0.0
2020-Aug-07 06:23N 54°12' E 012°08'0 0.0
2020-Aug-07 04:56N 54°12' E 012°08'0 0.0
2020-Aug-07 04:29N 54°12' E 012°08'0 0.0
2020-Aug-07 03:56N 54°12' E 012°08'0 0.0
2020-Aug-07 03:26N 54°12' E 012°08'0 0.0
2020-Aug-07 00:56N 54°12' E 012°08'0 0.0
2020-Aug-06 23:29N 54°12' E 012°08'0 0.0
2020-Aug-06 21:28N 54°12' E 012°08'0 0.0
2020-Aug-06 19:58N 54°12' E 012°08'0 0.0
2020-Aug-06 15:55N 54°12' E 012°08'0 0.0
2020-Aug-06 13:25N 54°12' E 012°08'7 0.9
2020-Aug-06 06:00N 54°06' E 012°08'0 0.0
2020-Aug-06 05:30N 54°06' E 012°08'0 0.0
2020-Aug-06 04:30N 54°06' E 012°08'0 0.0
2020-Aug-06 03:52N 54°06' E 012°08'0 0.0
2020-Aug-06 02:00N 54°06' E 012°08'0 0.0
2020-Aug-06 01:30N 54°06' E 012°08'0 0.0
2020-Aug-05 22:30N 54°06' E 012°09'0 0.0
2020-Aug-05 20:00N 54°06' E 012°08'0 0.0
2020-Aug-05 19:30N 54°06' E 012°08'0 0.0
2020-Aug-05 17:30N 54°06' E 012°08'0 0.0
2020-Aug-05 14:00N 54°06' E 012°08'0 0.0
2020-Aug-05 13:00N 54°06' E 012°08'0 0.0
2020-Aug-05 12:30N 54°06' E 012°09'4 1.3
2020-Aug-05 09:30N 54°09' E 012°06'2 0.5
2020-Aug-05 06:30N 54°11' E 012°06'0 0.0
2020-Aug-05 04:30N 54°11' E 012°06'0 0.0
2020-Aug-05 00:30N 54°11' E 012°06'0 0.0
2020-Aug-04 22:30N 54°11' E 012°06'0 0.0
2020-Aug-04 21:00N 54°11' E 012°06'0 0.0
2020-Aug-04 20:00N 54°11' E 012°06'0 0.0
2020-Aug-04 17:00N 54°11' E 012°06'15 2.5
2020-Aug-04 11:00N 54°19' E 011°44'11 4.0
2020-Aug-04 08:23N 54°22' E 011°27'7 1.9
2020-Aug-04 04:53N 54°24' E 011°16'0 0.0
2020-Aug-04 03:53N 54°24' E 011°16'0 0.0
2020-Aug-04 02:56N 54°24' E 011°16'0 0.0
2020-Aug-03 22:26N 54°24' E 011°16'1 0.3
2020-Aug-03 17:29N 54°24' E 011°18'6 5.8
2020-Aug-03 16:30N 54°29' E 011°16'6 5.7
2020-Aug-03 15:30N 54°32' E 011°08'12 4.8
2020-Aug-03 13:00N 54°35' E 010°47'4 2.1
2020-Aug-03 11:00N 54°37' E 010°41'2 2.2
2020-Aug-03 10:00N 54°36' E 010°37'1 2.1
2020-Aug-03 09:28N 54°36' E 010°35'4 4.8
2020-Aug-03 08:40N 54°35' E 010°28'11 6.4
2020-Aug-03 07:00N 54°35' E 010°10'5 3.3
2020-Aug-03 05:30N 54°35' E 010°02'0 0.0
2020-Aug-03 04:30N 54°35' E 010°02'0 0.0
2020-Aug-03 03:30N 54°35' E 010°02'0 0.0
2020-Aug-02 23:53N 54°35' E 010°02'0 0.0
2020-Aug-02 17:30N 54°35' E 010°02'0 0.0
2020-Aug-02 16:30N 54°35' E 010°02'0 0.0
2020-Aug-02 13:30N 54°35' E 010°02'0 0.0
2020-Aug-02 13:00N 54°35' E 010°02'0 0.0
2020-Aug-02 12:30N 54°35' E 010°02'2 0.8
2020-Aug-02 10:31N 54°34' E 010°03'2 4.3
2020-Aug-02 10:00N 54°36' E 010°03'5 1.3
2020-Aug-02 06:19N 54°40' E 010°02'0 0.0
2020-Aug-02 04:55N 54°40' E 010°02'0 0.0
2020-Aug-02 04:29N 54°40' E 010°02'0 0.0
2020-Aug-02 03:59N 54°40' E 010°02'0 0.0
2020-Aug-02 02:57N 54°40' E 010°02'0 0.0
2020-Aug-02 01:49N 54°40' E 010°02'0 0.0
2020-Aug-02 01:00N 54°40' E 010°02'0 0.0
2020-Aug-01 22:30N 54°40' E 010°02'0 0.0
2020-Aug-01 15:56N 54°40' E 010°02'5 2.4
2020-Aug-01 14:00N 54°38' E 010°08'16 6.3
2020-Aug-01 11:30N 54°22' E 010°11'2 0.9
2020-Aug-01 09:30N 54°20' E 010°09'0 0.0
2020-Aug-01 05:30N 54°20' E 010°09'0 0.0
2020-Aug-01 03:01N 54°20' E 010°09'0 0.0
2020-Aug-01 02:30N 54°20' E 010°09'0 0.0
2020-Aug-01 00:30N 54°20' E 010°09'0 0.0
2020-Aug-01 00:01N 54°20' E 010°09'0 0.0
2020-Jul-31 21:30N 54°20' E 010°09'0 0.0
2020-Jul-31 18:00N 54°20' E 010°09'0 0.0
2020-Jul-31 15:30N 54°20' E 010°09'4 1.1
2020-Jul-31 12:00N 54°24' E 010°12'7 3.4
2020-Jul-31 10:00N 54°30' E 010°08'10 2.9
2020-Jul-31 06:29N 54°28' E 009°51'1 1.2
2020-Jul-31 06:00N 54°28' E 009°50'0 0.0
2020-Jul-31 05:00N 54°28' E 009°50'0 0.0
2020-Jul-31 04:00N 54°28' E 009°50'0 0.0
2020-Jul-31 00:58N 54°28' E 009°50'  

Dump ship's entire track history